Alverda, Pennsylvania
Current Conditions -  °F | °C
As of 3:35 PM on Friday 28 Nov 2014 (Local Time) from KIDI Reporting Station
Few Clouds Few Clouds  
Wind Chill: -7°   Ceiling: Unl
Heat Index: -3°   Visibility: 10mi
Dew Point: -11°   Wind: 7mph
Humidity: 55%   Direction: 280°W
Pressure: 30.25"   Gusts: NA
Location:  40.63°N, 78.86°W
Report Text: KIDI 282035Z AUTO 28006KT 10SM FEW038 FEW120 M03/M11 A3025 RMK A01
Loading
Personal Weather Stations






























Interactive Weather Map New forecast layout! Learn more

10-Day Weather Forecast

Advertisements
Track Severe Weather on mobile